Time;durP1;ratioP1;P1;durP2;ratioP2;P2;SDS_P1;SDS_P2;PMS_P1;PMS_P2;Temp;Humidity;BMP_temperature;BMP_pressure;BME280_temperature;BME280_humidity;BME280_pressure;Samples;Min_cycle;Max_cycle;Signal;HPM_P1;HPM_P2
2023/05/24 00:01:49;;;;;;;;;;;;;;;19.40;65.61;96759.81;598106;237;65325;-62
2023/05/24 00:04:17;;;;;;;;;;;;;;;19.41;65.57;96760.61;598112;237;66698;-62
2023/05/24 00:06:45;;;;;;;;;;;;;;;19.41;65.62;96765.94;598143;237;68712;-61
2023/05/24 00:09:13;;;;;;;;;;;;;;;19.42;65.56;96772.85;598106;237;66961;-61
2023/05/24 00:11:40;;;;;;;;;;;;;;;19.41;65.54;96766.73;598112;237;66276;-61
2023/05/24 00:14:08;;;;;;;;;;;;;;;19.42;65.61;96762.19;598117;237;68641;-61
2023/05/24 00:16:35;;;;;;;;;;;;;;;19.42;65.63;96760.33;598066;237;65044;-61
2023/05/24 00:19:03;;;;;;;;;;;;;;;19.41;65.55;96756.07;598094;237;66920;-61
2023/05/24 00:21:31;;;;;;;;;;;;;;;19.41;65.57;96753.41;598079;237;66685;-61
2023/05/24 00:23:58;;;;;;;;;;;;;;;19.42;65.60;96748.87;598101;237;64887;-61
2023/05/24 00:26:25;;;;;;;;;;;;;;;19.42;65.58;96748.87;598066;237;66561;-61
2023/05/24 00:28:55;;;;;;;;;;;;;;;19.42;65.61;96743.54;598117;237;48675;-61
2023/05/24 00:31:22;;;;;;;;;;;;;;;19.42;65.56;96748.87;598111;237;62773;-61
2023/05/24 00:33:50;;;;;;;;;;;;;;;19.41;65.65;96736.63;598154;237;66575;-61
2023/05/24 00:36:18;;;;;;;;;;;;;;;19.41;65.72;96745.41;598074;237;69372;-61
2023/05/24 00:38:47;;;;;;;;;;;;;;;19.41;65.94;96739.28;598151;237;65690;-61
2023/05/24 00:41:16;;;;;;;;;;;;;;;19.41;65.67;96745.41;598089;237;69281;-61
2023/05/24 00:43:43;;;;;;;;;;;;;;;19.42;65.74;96754.20;598109;237;68754;-61
2023/05/24 00:46:28;;;;;;;;;;;;;;;19.41;65.63;96748.08;598192;237;65065;-61
2023/05/24 00:48:56;;;;;;;;;;;;;;;19.42;65.64;96754.20;598145;237;68613;-61
2023/05/24 00:51:26;;;;;;;;;;;;;;;19.41;65.74;96756.07;598134;237;68759;-61
2023/05/24 00:53:53;;;;;;;;;;;;;;;19.41;65.66;96761.40;598122;237;66106;-61
2023/05/24 00:56:21;;;;;;;;;;;;;;;19.41;65.74;96771.27;598127;237;68692;-61
2023/05/24 00:58:53;;;;;;;;;;;;;;;19.40;65.66;96769.67;598148;237;68267;-61
2023/05/24 01:01:19;;;;;;;;;;;;;;;19.40;65.68;96759.81;598101;237;63558;-61
2023/05/24 01:03:47;;;;;;;;;;;;;;;19.40;65.72;96762.48;598123;237;67720;-60
2023/05/24 01:06:15;;;;;;;;;;;;;;;19.40;65.75;96761.68;598102;237;69047;-61
2023/05/24 01:08:47;;;;;;;;;;;;;;;19.41;65.72;96763.27;598136;237;63823;-61
2023/05/24 01:11:33;;;;;;;;;;;;;;;19.41;65.84;96763.27;589602;237;70924;-61
2023/05/24 01:14:20;;;;;;;;;;;;;;;19.40;65.71;96767.80;598128;237;66626;-62
2023/05/24 01:16:55;;;;;;;;;;;;;;;19.40;65.82;96762.48;598213;234;43520;-62
2023/05/24 01:19:33;;;;;;;;;;;;;;;19.40;65.84;96753.69;598154;237;68584;-61
2023/05/24 01:22:18;;;;;;;;;;;;;;;19.39;65.86;96752.86;598071;237;68482;-61
2023/05/24 01:25:05;;;;;;;;;;;;;;;19.39;65.77;96757.40;598132;237;65132;-61
2023/05/24 01:27:34;;;;;;;;;;;;;;;19.39;65.87;96760.06;598101;237;68527;-61
2023/05/24 01:30:03;;;;;;;;;;;;;;;19.38;65.87;96761.14;598116;237;68702;-61
2023/05/24 01:32:30;;;;;;;;;;;;;;;19.39;65.71;96760.06;598075;237;65242;-61
2023/05/24 01:34:58;;;;;;;;;;;;;;;19.37;65.93;96757.69;598173;237;66696;-61
2023/05/24 01:37:25;;;;;;;;;;;;;;;19.38;65.65;96758.48;598132;237;66569;-61
2023/05/24 01:39:53;;;;;;;;;;;;;;;19.38;65.77;96761.14;598102;237;65074;-61
2023/05/24 01:42:36;;;;;;;;;;;;;;;19.38;65.71;96769.93;598107;237;69487;-62
2023/05/24 01:45:11;;;;;;;;;;;;;;;19.38;65.76;96777.13;598092;237;68669;-61
2023/05/24 01:47:44;;;;;;;;;;;;;;;19.38;65.77;96766.47;598115;237;65730;-62
2023/05/24 01:50:16;;;;;;;;;;;;;;;19.38;65.78;96761.14;598215;237;66393;-60
2023/05/24 01:52:44;;;;;;;;;;;;;;;19.38;65.77;96767.27;596987;237;66308;-61
2023/05/24 01:55:13;;;;;;;;;;;;;;;19.38;65.69;96766.47;598138;237;65112;-61
2023/05/24 01:57:42;;;;;;;;;;;;;;;19.38;65.71;96769.14;598085;237;68447;-61
2023/05/24 02:00:12;;;;;;;;;;;;;;;19.38;65.82;96761.94;598147;237;65963;-62
2023/05/24 02:02:41;;;;;;;;;;;;;;;19.38;65.68;96761.14;598123;237;65068;-61
2023/05/24 02:05:10;;;;;;;;;;;;;;;19.38;65.65;96761.14;598181;237;68396;-61
2023/05/24 02:07:37;;;;;;;;;;;;;;;19.38;65.56;96758.48;598131;237;68437;-61
2023/05/24 02:10:05;;;;;;;;;;;;;;;19.37;65.55;96763.02;598113;237;65030;-61
2023/05/24 02:12:33;;;;;;;;;;;;;;;19.36;65.59;96763.27;598116;237;68534;-61
2023/05/24 02:15:00;;;;;;;;;;;;;;;19.38;65.51;96766.47;598147;237;68306;-61
2023/05/24 02:17:31;;;;;;;;;;;;;;;19.38;65.66;96766.47;598159;237;65973;-61
2023/05/24 02:19:57;;;;;;;;;;;;;;;19.38;65.51;96763.80;598048;237;69472;-61
2023/05/24 02:22:27;;;;;;;;;;;;;;;19.37;65.50;96768.34;598050;237;66448;-61
2023/05/24 02:24:54;;;;;;;;;;;;;;;19.37;65.46;96767.52;598108;237;65040;-61
2023/05/24 02:27:22;;;;;;;;;;;;;;;19.37;65.45;96764.85;598108;237;69216;-61
2023/05/24 02:29:51;;;;;;;;;;;;;;;19.38;65.51;96755.81;598159;237;68558;-61
2023/05/24 02:32:19;;;;;;;;;;;;;;;19.38;65.39;96755.81;598112;237;62807;-62
2023/05/24 02:34:46;;;;;;;;;;;;;;;19.37;65.41;96760.34;598111;237;68772;-61
2023/05/24 02:37:14;;;;;;;;;;;;;;;19.37;65.45;96755.02;598094;237;67321;-61
2023/05/24 02:39:41;;;;;;;;;;;;;;;19.37;65.37;96757.69;598123;237;62924;-61
2023/05/24 02:42:10;;;;;;;;;;;;;;;19.37;65.49;96760.34;598135;237;66301;-62
2023/05/24 02:44:37;;;;;;;;;;;;;;;19.38;65.52;96761.14;598159;237;68512;-61
2023/05/24 02:47:05;;;;;;;;;;;;;;;19.37;65.45;96763.02;598080;237;63048;-61
2023/05/24 02:49:32;;;;;;;;;;;;;;;19.36;65.53;96756.06;598088;237;68920;-61
2023/05/24 02:52:00;;;;;;;;;;;;;;;19.36;65.55;96764.06;598097;237;66589;-61
2023/05/24 02:54:27;;;;;;;;;;;;;;;19.37;65.55;96759.52;598116;237;64794;-61
2023/05/24 02:56:55;;;;;;;;;;;;;;;19.37;65.47;96762.19;598155;237;68622;-61
2023/05/24 02:59:23;;;;;;;;;;;;;;;19.37;65.54;96760.34;598098;237;68667;-61
2023/05/24 03:01:51;;;;;;;;;;;;;;;19.37;65.47;96754.20;598124;237;65169;-61
2023/05/24 03:04:18;;;;;;;;;;;;;;;19.37;65.52;96760.34;598108;237;68583;-61
2023/05/24 03:06:46;;;;;;;;;;;;;;;19.36;65.47;96758.73;598115;237;66692;-61
2023/05/24 03:09:15;;;;;;;;;;;;;;;19.36;65.44;96756.06;598143;237;65669;-61
2023/05/24 03:11:43;;;;;;;;;;;;;;;19.36;65.45;96753.40;598055;237;68819;-61
2023/05/24 03:14:10;;;;;;;;;;;;;;;19.35;65.43;96757.14;598111;237;66210;-61
2023/05/24 03:16:40;;;;;;;;;;;;;;;19.36;65.38;96752.61;598109;237;50090;-62
2023/05/24 03:19:07;;;;;;;;;;;;;;;19.36;65.41;96757.94;598081;237;69671;-62
2023/05/24 03:21:35;;;;;;;;;;;;;;;19.36;65.36;96760.60;598746;236;68678;-62
2023/05/24 03:24:02;;;;;;;;;;;;;;;19.36;65.38;96761.39;599868;236;64959;-62
2023/05/24 03:26:30;;;;;;;;;;;;;;;19.35;65.35;96761.67;599891;236;66801;-62
2023/05/24 03:28:57;;;;;;;;;;;;;;;19.35;65.29;96761.67;599886;236;66455;-62
2023/05/24 03:31:27;;;;;;;;;;;;;;;19.36;65.29;96765.93;599697;236;46757;-62
2023/05/24 03:33:55;;;;;;;;;;;;;;;19.35;65.24;96767.80;599872;236;69518;-61
2023/05/24 03:36:24;;;;;;;;;;;;;;;19.35;65.24;96767.01;599870;236;66518;-62
2023/05/24 03:38:52;;;;;;;;;;;;;;;19.35;65.25;96767.01;599871;236;62516;-62
2023/05/24 03:41:20;;;;;;;;;;;;;;;19.35;65.24;96773.12;599883;236;66661;-62
2023/05/24 03:43:47;;;;;;;;;;;;;;;19.34;65.21;96763.52;599822;236;66439;-62
2023/05/24 03:46:16;;;;;;;;;;;;;;;19.35;65.13;96767.01;599928;236;43655;-62
2023/05/24 03:48:44;;;;;;;;;;;;;;;19.34;65.17;96771.52;599918;236;68627;-61
2023/05/24 03:51:11;;;;;;;;;;;;;;;19.35;65.11;96773.12;599873;236;68525;-62
2023/05/24 03:53:39;;;;;;;;;;;;;;;19.35;65.17;96765.14;599898;236;65409;-61
2023/05/24 03:56:07;;;;;;;;;;;;;;;19.35;65.11;96769.67;599849;236;66935;-62
2023/05/24 03:58:34;;;;;;;;;;;;;;;19.34;65.13;96776.05;599851;236;66338;-62
2023/05/24 04:01:02;;;;;;;;;;;;;;;19.35;65.04;96772.34;599903;236;64908;-62
2023/05/24 04:03:32;;;;;;;;;;;;;;;19.35;65.11;96775.00;599885;236;69068;-62
2023/05/24 04:05:59;;;;;;;;;;;;;;;19.35;65.16;96769.67;599843;236;68533;-62
2023/05/24 04:08:27;;;;;;;;;;;;;;;19.34;65.10;96776.84;599869;236;65075;-62
2023/05/24 04:10:54;;;;;;;;;;;;;;;19.34;65.12;96778.71;599831;236;67194;-62
2023/05/24 04:13:22;;;;;;;;;;;;;;;19.34;65.08;96778.71;599954;236;66466;-62
2023/05/24 04:15:50;;;;;;;;;;;;;;;19.34;65.07;96776.05;599916;236;65083;-62
2023/05/24 04:18:17;;;;;;;;;;;;;;;19.34;65.05;96786.70;599920;236;68810;-62
2023/05/24 04:20:46;;;;;;;;;;;;;;;19.33;65.08;96780.58;599778;235;68546;-62
2023/05/24 04:23:14;;;;;;;;;;;;;;;19.34;65.10;96787.50;599866;236;65039;-62
2023/05/24 04:25:42;;;;;;;;;;;;;;;19.34;65.07;96786.70;599910;236;68680;-62
2023/05/24 04:28:09;;;;;;;;;;;;;;;19.34;65.07;96778.71;599959;236;68649;-62
2023/05/24 04:30:37;;;;;;;;;;;;;;;19.33;65.09;96779.79;599896;236;65119;-62
2023/05/24 04:33:05;;;;;;;;;;;;;;;19.33;65.05;96783.25;599890;236;69535;-62
2023/05/24 04:35:32;;;;;;;;;;;;;;;19.33;65.09;96785.12;599900;236;67296;-62
2023/05/24 04:38:00;;;;;;;;;;;;;;;19.33;65.04;96779.79;599877;236;64667;-63
2023/05/24 04:40:27;;;;;;;;;;;;;;;19.32;65.10;96781.66;599926;236;68737;-63
2023/05/24 04:42:57;;;;;;;;;;;;;;;19.33;65.11;96779.79;599938;236;66329;-63
2023/05/24 04:45:24;;;;;;;;;;;;;;;19.33;65.08;96779.79;599906;236;63085;-63
2023/05/24 04:47:52;;;;;;;;;;;;;;;19.32;65.10;96778.20;599895;236;66650;-62
2023/05/24 04:50:19;;;;;;;;;;;;;;;19.32;65.10;96786.98;599846;236;69062;-63
2023/05/24 04:52:47;;;;;;;;;;;;;;;19.33;65.08;96780.58;599948;236;65060;-63
2023/05/24 04:55:14;;;;;;;;;;;;;;;19.33;65.12;96779.79;599881;236;68766;-62
2023/05/24 04:57:42;;;;;;;;;;;;;;;19.33;65.09;96777.13;599888;236;68785;-62
2023/05/24 05:00:10;;;;;;;;;;;;;;;19.33;65.08;96782.45;599907;236;65068;-62
2023/05/24 05:02:37;;;;;;;;;;;;;;;19.33;65.04;96782.45;599878;236;68780;-62
2023/05/24 05:05:05;;;;;;;;;;;;;;;19.32;65.09;96780.86;599908;236;66734;-62
2023/05/24 05:07:32;;;;;;;;;;;;;;;19.32;65.04;96783.53;599917;236;65042;-62
2023/05/24 05:10:00;;;;;;;;;;;;;;;19.32;65.07;96783.53;599898;236;68467;-62
2023/05/24 05:12:27;;;;;;;;;;;;;;;19.32;65.04;96783.53;599894;236;68595;-62
2023/05/24 05:14:55;;;;;;;;;;;;;;;19.31;65.04;96790.70;599881;236;63074;-62
2023/05/24 05:17:23;;;;;;;;;;;;;;;19.32;65.05;96794.19;599847;236;68916;-62
2023/05/24 05:19:50;;;;;;;;;;;;;;;19.32;64.97;96788.86;599884;236;68687;-62
2023/05/24 05:22:17;;;;;;;;;;;;;;;19.30;65.06;96787.23;598684;236;65043;-62
2023/05/24 05:24:45;;;;;;;;;;;;;;;19.32;65.03;96789.65;598123;237;68761;-62
2023/05/24 05:27:12;;;;;;;;;;;;;;;19.30;65.05;96783.78;598130;237;68538;-62
2023/05/24 05:29:40;;;;;;;;;;;;;;;19.29;64.99;96779.52;598096;237;65024;-62
2023/05/24 05:32:08;;;;;;;;;;;;;;;19.31;65.01;96790.70;598068;237;66645;-62
2023/05/24 05:34:35;;;;;;;;;;;;;;;19.30;65.02;96789.91;598100;237;66264;-62
2023/05/24 05:37:02;;;;;;;;;;;;;;;19.30;65.05;96781.91;598115;237;65007;-62
2023/05/24 05:39:35;;;;;;;;;;;;;;;19.30;65.03;96781.91;598111;237;66514;-63
2023/05/24 05:42:01;;;;;;;;;;;;;;;19.29;65.03;96780.32;597968;237;66718;-62
2023/05/24 05:44:28;;;;;;;;;;;;;;;19.30;65.05;96783.78;598137;237;64925;-62
2023/05/24 05:46:56;;;;;;;;;;;;;;;19.30;65.07;96781.11;598096;237;66554;-63
2023/05/24 05:49:23;;;;;;;;;;;;;;;19.30;65.04;96784.58;598094;237;68530;-63
2023/05/24 05:51:51;;;;;;;;;;;;;;;19.29;65.09;96777.66;598124;237;62947;-62
2023/05/24 05:54:19;;;;;;;;;;;;;;;19.29;65.14;96780.32;598151;237;68757;-62
2023/05/24 05:56:47;;;;;;;;;;;;;;;19.29;65.12;96782.19;598180;237;68133;-62
2023/05/24 05:59:15;;;;;;;;;;;;;;;19.28;65.10;96784.03;597695;237;64762;-63
2023/05/24 06:01:44;;;;;;;;;;;;;;;19.29;65.09;96785.65;598044;237;68450;-62
2023/05/24 06:04:12;;;;;;;;;;;;;;;19.28;65.12;96789.36;597394;237;68716;-63
2023/05/24 06:06:40;;;;;;;;;;;;;;;19.28;65.05;96789.36;598417;234;65127;-64
2023/05/24 06:09:08;;;;;;;;;;;;;;;19.29;65.08;96800.84;593725;236;68508;-64
2023/05/24 06:11:35;;;;;;;;;;;;;;;19.26;64.77;96802.17;598849;234;66342;-63
2023/05/24 06:14:03;;;;;;;;;;;;;;;19.26;65.57;96796.84;598960;234;65118;-63
2023/05/24 06:16:31;;;;;;;;;;;;;;;19.26;65.64;96796.84;598827;235;68490;-63
2023/05/24 06:18:59;;;;;;;;;;;;;;;19.28;65.68;96796.56;599239;235;66610;-64
2023/05/24 06:21:28;;;;;;;;;;;;;;;19.28;65.81;96791.23;599493;236;65048;-71
2023/05/24 06:23:57;;;;;;;;;;;;;;;19.28;65.70;96793.89;599584;235;66266;-63
2023/05/24 06:26:25;;;;;;;;;;;;;;;19.28;65.62;96789.36;601534;235;69427;-63
2023/05/24 06:28:53;;;;;;;;;;;;;;;19.29;65.42;96798.17;602625;235;62980;-63
2023/05/24 06:31:21;;;;;;;;;;;;;;;19.29;64.61;96795.52;602527;235;66793;-62
2023/05/24 06:33:48;;;;;;;;;;;;;;;19.29;64.82;96800.84;602554;235;66554;-63
2023/05/24 06:36:18;;;;;;;;;;;;;;;19.28;64.57;96800.02;602379;235;62908;-63
2023/05/24 06:38:45;;;;;;;;;;;;;;;19.29;64.55;96798.97;602443;235;66550;-63
2023/05/24 06:41:14;;;;;;;;;;;;;;;19.30;64.53;96799.77;602573;235;68680;-63
2023/05/24 06:43:41;;;;;;;;;;;;;;;19.33;66.06;96807.23;602673;235;64945;-63
2023/05/24 06:46:08;;;;;;;;;;;;;;;19.32;65.23;96802.18;602610;235;66685;-63
2023/05/24 06:48:36;;;;;;;;;;;;;;;19.31;65.37;96801.35;602591;235;68673;-63
2023/05/24 06:51:04;;;;;;;;;;;;;;;19.30;64.54;96803.22;602613;235;63011;-64
2023/05/24 06:53:31;;;;;;;;;;;;;;;19.30;64.43;96803.22;602544;235;68639;-63
2023/05/24 06:55:59;;;;;;;;;;;;;;;19.31;64.42;96798.69;602592;235;66424;-63
2023/05/24 06:58:26;;;;;;;;;;;;;;;19.31;64.29;96804.02;602525;235;62781;-64
2023/05/24 07:00:53;;;;;;;;;;;;;;;19.31;64.41;96796.02;602471;235;66574;-64
2023/05/24 07:03:22;;;;;;;;;;;;;;;19.30;64.36;96797.89;602618;235;68694;-63
2023/05/24 07:05:49;;;;;;;;;;;;;;;19.32;64.34;96804.84;602156;235;65155;-63
2023/05/24 07:08:17;;;;;;;;;;;;;;;19.30;64.32;96797.89;602457;235;68783;-63
2023/05/24 07:10:44;;;;;;;;;;;;;;;19.32;64.24;96794.19;602533;235;68491;-63
2023/05/24 07:13:12;;;;;;;;;;;;;;;19.30;64.16;96792.56;602693;235;64859;-63
2023/05/24 07:15:43;;;;;;;;;;;;;;;19.35;64.73;96790.98;602681;235;68528;-63
2023/05/24 07:18:10;;;;;;;;;;;;;;;19.39;64.74;96794.70;602699;235;67225;-63
2023/05/24 07:20:38;;;;;;;;;;;;;;;19.39;65.08;96789.38;602492;235;65063;-64
2023/05/24 07:23:05;;;;;;;;;;;;;;;19.41;64.92;96796.05;599641;235;66761;-63
2023/05/24 07:25:33;;;;;;;;;;;;;;;19.41;64.87;96798.70;599592;236;68697;-63
2023/05/24 07:28:01;;;;;;;;;;;;;;;19.43;64.90;96795.79;599558;236;63030;-62
2023/05/24 07:30:28;;;;;;;;;;;;;;;19.44;64.82;96797.38;599452;236;68675;-62
2023/05/24 07:32:56;;;;;;;;;;;;;;;19.45;64.80;96793.64;599526;236;68678;-62
2023/05/24 07:35:23;;;;;;;;;;;;;;;19.45;64.84;96791.80;599409;236;64923;-62
2023/05/24 07:37:51;;;;;;;;;;;;;;;19.46;64.81;96792.59;599476;236;68356;-61
2023/05/24 07:40:19;;;;;;;;;;;;;;;19.47;64.78;96797.64;599392;236;68832;-62
2023/05/24 07:42:46;;;;;;;;;;;;;;;19.47;64.82;96786.98;599389;236;62932;-62
2023/05/24 07:45:14;;;;;;;;;;;;;;;19.48;64.83;96793.13;599421;236;69084;-62
2023/05/24 07:47:42;;;;;;;;;;;;;;;19.49;64.82;96795.52;599460;236;66661;-62
2023/05/24 07:50:10;;;;;;;;;;;;;;;19.49;64.82;96794.72;595052;236;65301;-65
2023/05/24 07:52:38;;;;;;;;;;;;;;;19.51;65.49;96797.92;599520;236;68792;-63
2023/05/24 07:55:06;;;;;;;;;;;;;;;19.47;64.83;96802.17;599491;236;66567;-63
2023/05/24 07:57:33;;;;;;;;;;;;;;;19.44;64.99;96797.38;599454;236;65073;-63
2023/05/24 08:00:08;;;;;;;;;;;;;;;19.43;64.75;96798.45;599509;236;66521;-66
2023/05/24 08:02:32;;;;;;;;;;;;;;;19.42;64.56;96807.50;599212;236;45658;-63
2023/05/24 08:05:00;;;;;;;;;;;;;;;19.42;64.83;96799.50;599476;236;62913;-63
2023/05/24 08:07:27;;;;;;;;;;;;;;;19.41;65.18;96800.58;599517;236;66664;-63
2023/05/24 08:09:55;;;;;;;;;;;;;;;19.40;65.25;96802.45;599502;236;66606;-63
2023/05/24 08:12:24;;;;;;;;;;;;;;;19.40;65.22;96798.98;599416;236;63110;-62
2023/05/24 08:14:51;;;;;;;;;;;;;;;19.39;65.07;96800.03;599495;236;68690;-62
2023/05/24 08:17:18;;;;;;;;;;;;;;;19.38;64.83;96796.58;599512;236;68700;-62
2023/05/24 08:19:46;;;;;;;;;;;;;;;19.38;64.59;96804.57;599477;236;63057;-62
2023/05/24 08:22:14;;;;;;;;;;;;;;;19.39;64.42;96808.03;602262;234;68757;-62
2023/05/24 08:24:42;;;;;;;;;;;;;;;19.38;64.52;96812.56;603978;235;66391;-62
2023/05/24 08:27:09;;;;;;;;;;;;;;;19.38;64.35;96809.11;603783;235;62887;-62
2023/05/24 08:29:37;;;;;;;;;;;;;;;19.39;64.41;96816.02;603937;235;66350;-61
2023/05/24 08:32:08;;;;;;;;;;;;;;;19.38;64.40;96817.10;603917;235;67010;-62
2023/05/24 08:34:35;;;;;;;;;;;;;;;19.38;64.27;96809.11;603154;235;64870;-62
2023/05/24 08:37:03;;;;;;;;;;;;;;;19.37;64.14;96808.31;609745;232;67791;-62
2023/05/24 08:39:30;;;;;;;;;;;;;;;19.38;64.10;96814.44;610974;232;66564;-62
2023/05/24 08:41:59;;;;;;;;;;;;;;;19.37;64.19;96808.31;611061;232;65391;-61
2023/05/24 08:44:28;;;;;;;;;;;;;;;19.38;64.36;96814.44;610950;232;68818;-62
2023/05/24 08:46:57;;;;;;;;;;;;;;;19.38;64.50;96814.44;611072;232;66648;-62
2023/05/24 08:49:25;;;;;;;;;;;;;;;19.37;64.53;96808.31;611088;232;65195;-62
2023/05/24 08:51:53;;;;;;;;;;;;;;;19.37;64.41;96818.14;611124;232;68464;-63
2023/05/24 08:54:20;;;;;;;;;;;;;;;19.37;64.34;96813.64;610939;232;68853;-62
2023/05/24 08:56:50;;;;;;;;;;;;;;;19.37;64.25;96818.97;610805;232;65114;-61
2023/05/24 08:59:19;;;;;;;;;;;;;;;19.37;64.33;96813.64;606946;232;66925;-61
2023/05/24 09:01:48;;;;;;;;;;;;;;;19.39;64.84;96814.16;608897;232;66482;-61
2023/05/24 09:04:16;;;;;;;;;;;;;;;19.39;64.77;96811.48;610981;232;65476;-62
2023/05/24 09:06:44;;;;;;;;;;;;;;;19.38;64.79;96815.23;611047;232;68752;-62
2023/05/24 09:09:12;;;;;;;;;;;;;;;19.40;65.10;96822.97;607284;232;68719;-62
2023/05/24 09:11:40;;;;;;;;;;;;;;;19.38;64.98;96823.22;611071;232;65102;-62
2023/05/24 09:14:08;;;;;;;;;;;;;;;19.38;64.57;96827.77;611151;232;66664;-62
2023/05/24 09:16:35;;;;;;;;;;;;;;;19.37;64.47;96820.81;611019;232;66533;-61
2023/05/24 09:19:03;;;;;;;;;;;;;;;19.37;64.43;96824.30;611034;232;62958;-62
2023/05/24 09:21:31;;;;;;;;;;;;;;;19.37;64.43;96821.64;610221;232;68861;-61
2023/05/24 09:23:59;;;;;;;;;;;;;;;19.36;64.33;96820.02;608118;233;69145;-62
2023/05/24 09:26:29;;;;;;;;;;;;;;;19.37;64.35;96828.80;605924;234;65034;-62
2023/05/24 09:28:57;;;;;;;;;;;;;;;19.37;64.26;96824.30;604995;234;66754;-62
2023/05/24 09:31:34;;;;;;;;;;;;;;;19.37;64.17;96824.30;605608;234;66687;-61
2023/05/24 09:34:02;;;;;;;;;;;;;;;19.38;64.21;96830.42;605990;234;65042;-61
2023/05/24 09:36:35;;;;;;;;;;;;;;;19.37;64.21;96824.30;605905;234;66632;-62
2023/05/24 09:39:09;;;;;;;;;;;;;;;19.37;64.12;96826.14;606003;234;68521;-62
2023/05/24 09:41:37;;;;;;;;;;;;;;;19.37;64.15;96828.80;606030;234;65077;-62
2023/05/24 09:44:05;;;;;;;;;;;;;;;19.37;64.15;96829.63;605905;234;68856;-62
2023/05/24 09:46:34;;;;;;;;;;;;;;;19.38;64.23;96822.43;605928;234;69008;-62
2023/05/24 09:49:09;;;;;;;;;;;;;;;19.37;64.09;96824.30;605873;234;65221;-62
2023/05/24 09:51:35;;;;;;;;;;;;;;;19.37;64.10;96815.48;605811;234;68825;-61
2023/05/24 09:54:03;;;;;;;;;;;;;;;19.36;64.06;96817.35;606034;234;66625;-62
2023/05/24 09:56:32;;;;;;;;;;;;;;;19.38;64.64;96822.43;605970;234;63760;-61
2023/05/24 09:59:01;;;;;;;;;;;;;;;19.38;64.75;96814.44;605941;234;66676;-61
2023/05/24 10:01:30;;;;;;;;;;;;;;;19.37;64.26;96816.30;605875;234;68457;-62
2023/05/24 10:03:59;;;;;;;;;;;;;;;19.37;63.98;96818.97;605959;234;65061;-61
2023/05/24 10:06:27;;;;;;;;;;;;;;;19.37;63.92;96808.31;605925;234;66130;-62
2023/05/24 10:08:55;;;;;;;;;;;;;;;19.38;63.89;96819.77;605999;234;68540;-61
2023/05/24 10:11:23;;;;;;;;;;;;;;;19.38;63.89;96814.44;605968;234;65851;-62
2023/05/24 10:13:51;;;;;;;;;;;;;;;19.38;63.86;96815.23;605953;234;68753;-61
2023/05/24 10:16:19;;;;;;;;;;;;;;;19.38;63.87;96817.89;605960;234;68430;-61
2023/05/24 10:18:46;;;;;;;;;;;;;;;19.37;63.80;96812.81;605952;234;65201;-61
2023/05/24 10:21:13;;;;;;;;;;;;;;;19.37;63.79;96813.64;606019;233;68470;-61
2023/05/24 10:23:43;;;;;;;;;;;;;;;19.38;63.79;96815.23;605975;234;68541;-61
2023/05/24 10:26:12;;;;;;;;;;;;;;;19.39;63.78;96813.36;605806;234;62929;-62
2023/05/24 10:28:44;;;;;;;;;;;;;;;19.38;63.69;96817.89;605815;234;68751;-61
2023/05/24 10:31:19;;;;;;;;;;;;;;;19.39;63.64;96821.36;605973;234;66552;-61
2023/05/24 10:33:47;;;;;;;;;;;;;;;19.39;63.66;96821.36;605323;234;62979;-61
2023/05/24 10:36:15;;;;;;;;;;;;;;;19.38;63.55;96819.77;605095;234;70013;-61
2023/05/24 10:38:43;;;;;;;;;;;;;;;19.39;63.64;96813.36;605338;234;68659;-59
2023/05/24 10:41:12;;;;;;;;;;;;;;;19.38;63.59;96811.77;605409;234;65115;-59
2023/05/24 10:43:40;;;;;;;;;;;;;;;19.38;63.53;96814.44;605550;234;68831;-59
2023/05/24 10:46:09;;;;;;;;;;;;;;;19.39;63.58;96802.70;605707;234;66548;-59
2023/05/24 10:48:40;;;;;;;;;;;;;;;19.39;63.60;96803.49;605691;234;65096;-62
2023/05/24 10:51:10;;;;;;;;;;;;;;;19.41;64.56;96801.38;605916;234;68812;-58
2023/05/24 10:53:39;;;;;;;;;;;;;;;19.41;64.11;96793.38;604964;234;65881;-59
2023/05/24 10:56:08;;;;;;;;;;;;;;;19.40;64.10;96791.79;605882;234;65029;-59
2023/05/24 10:58:46;;;;;;;;;;;;;;;19.40;63.85;96786.46;605919;234;66565;-59
2023/05/24 11:01:15;;;;;;;;;;;;;;;19.40;63.72;96780.34;605501;234;66814;-60
2023/05/24 11:03:43;;;;;;;;;;;;;;;19.39;63.60;96779.52;605492;234;63901;-60
2023/05/24 11:06:11;;;;;;;;;;;;;;;19.40;63.48;96778.47;599300;234;68758;-60
2023/05/24 11:08:42;;;;;;;;;;;;;;;19.40;63.53;96780.34;599728;235;68704;-60
2023/05/24 11:11:23;;;;;;;;;;;;;;;19.40;63.47;96780.34;599836;236;65096;-60
2023/05/24 11:13:48;;;;;;;;;;;;;;;19.41;63.44;96779.26;599190;235;68762;-60
2023/05/24 11:16:37;;;;;;;;;;;;;;;19.39;63.48;96773.39;599494;235;68506;-60
2023/05/24 11:19:14;;;;;;;;;;;;;;;19.39;63.35;96776.05;599535;235;62975;-59
2023/05/24 11:21:43;;;;;;;;;;;;;;;19.39;63.36;96784.84;600077;235;68348;-61
2023/05/24 11:24:11;;;;;;;;;;;;;;;19.40;63.31;96793.66;601220;236;66358;-59
2023/05/24 11:26:39;;;;;;;;;;;;;;;19.40;63.39;96786.46;601248;236;63029;-59
2023/05/24 11:29:07;;;;;;;;;;;;;;;19.40;63.38;96785.66;601311;236;68802;-59
2023/05/24 11:31:38;;;;;;;;;;;;;;;19.40;63.38;96777.67;601283;236;68466;-59
2023/05/24 11:34:03;;;;;;;;;;;;;;;19.40;63.44;96781.12;601237;235;65064;-59
2023/05/24 11:36:32;;;;;;;;;;;;;;;19.41;63.37;96771.27;601199;236;66271;-59
2023/05/24 11:39:00;;;;;;;;;;;;;;;19.40;63.37;96765.14;601209;236;68477;-59
2023/05/24 11:41:28;;;;;;;;;;;;;;;19.40;63.27;96767.02;601261;236;65043;-60
2023/05/24 11:43:56;;;;;;;;;;;;;;;19.41;63.29;96760.61;601324;236;68454;-59
2023/05/24 11:46:24;;;;;;;;;;;;;;;19.41;63.29;96755.27;601262;236;68571;-60
2023/05/24 11:48:56;;;;;;;;;;;;;;;19.41;63.29;96756.07;601303;236;62900;-60
2023/05/24 11:51:27;;;;;;;;;;;;;;;19.41;63.32;96758.73;601026;236;66312;-60
2023/05/24 11:53:55;;;;;;;;;;;;;;;19.42;63.29;96762.19;601284;236;68418;-60
2023/05/24 11:56:24;;;;;;;;;;;;;;;19.41;63.30;96753.41;601313;236;65352;-60
2023/05/24 11:58:55;;;;;;;;;;;;;;;19.42;63.29;96756.86;601288;236;68487;-60
2023/05/24 12:01:24;;;;;;;;;;;;;;;19.41;63.33;96742.75;601358;236;68450;-62
2023/05/24 12:03:54;;;;;;;;;;;;;;;19.42;63.37;96743.54;601065;235;63016;-60
2023/05/24 12:06:22;;;;;;;;;;;;;;;19.42;63.72;96748.87;601250;236;67207;-60
2023/05/24 12:08:50;;;;;;;;;;;;;;;19.43;63.65;96747.82;601326;236;66140;-60
2023/05/24 12:11:17;;;;;;;;;;;;;;;19.42;63.50;96744.33;601345;236;63822;-60
2023/05/24 12:13:45;;;;;;;;;;;;;;;19.42;63.70;96741.67;601278;236;66556;-60
2023/05/24 12:16:13;;;;;;;;;;;;;;;19.43;63.66;96743.28;601226;236;66727;-60
2023/05/24 12:18:40;;;;;;;;;;;;;;;19.43;63.50;96737.16;601271;236;65117;-60
2023/05/24 12:21:14;;;;;;;;;;;;;;;19.43;63.50;96731.83;601216;236;68460;-61
2023/05/24 12:23:39;;;;;;;;;;;;;;;19.47;64.38;96725.68;601062;236;66285;-60
2023/05/24 12:26:07;;;;;;;;;;;;;;;19.49;63.87;96728.09;601326;236;63084;-59
2023/05/24 12:28:37;;;;;;;;;;;;;;;19.50;63.78;96724.34;601224;236;68452;-60
2023/05/24 12:31:05;;;;;;;;;;;;;;;19.53;64.23;96718.48;601316;236;68469;-60
2023/05/24 12:33:33;;;;;;;;;;;;;;;19.53;64.15;96715.81;601326;236;65011;-60
2023/05/24 12:36:01;;;;;;;;;;;;;;;19.54;64.07;96706.77;601260;236;66050;-60
2023/05/24 12:38:28;;;;;;;;;;;;;;;19.55;64.05;96707.56;601338;236;66379;-60
2023/05/24 12:40:56;;;;;;;;;;;;;;;19.55;64.16;96700.36;601287;236;62911;-59
2023/05/24 12:43:23;;;;;;;;;;;;;;;19.56;64.29;96699.31;601269;236;69745;-60
2023/05/24 12:45:51;;;;;;;;;;;;;;;19.57;64.41;96690.23;601323;236;68453;-60
2023/05/24 12:48:18;;;;;;;;;;;;;;;19.58;64.40;96696.36;601298;236;65029;-62
2023/05/24 12:50:46;;;;;;;;;;;;;;;19.58;64.45;96689.16;601367;236;66285;-59
2023/05/24 12:53:13;;;;;;;;;;;;;;;19.59;64.64;96690.77;601361;236;66351;-60
2023/05/24 12:55:41;;;;;;;;;;;;;;;19.59;64.74;96688.10;601251;236;62908;-60